createdAt,value
2018-11-14T00:01:55.003Z,6.76
2018-11-14T00:04:23.890Z,6.73
2018-11-14T00:06:52.911Z,6.69
2018-11-14T00:09:21.794Z,6.69
2018-11-14T00:11:50.661Z,6.74
2018-11-14T00:14:19.555Z,6.67
2018-11-14T00:16:48.468Z,6.67
2018-11-14T00:19:17.483Z,6.62
2018-11-14T00:21:46.702Z,6.58
2018-11-14T00:24:15.243Z,6.61
2018-11-14T00:26:44.408Z,6.61
2018-11-14T00:29:13.287Z,6.62
2018-11-14T00:31:42.151Z,6.61
2018-11-14T00:34:11.044Z,6.62
2018-11-14T00:36:39.948Z,6.63
2018-11-14T00:39:10.156Z,6.62
2018-11-14T00:41:39.113Z,6.62
2018-11-14T00:44:08.056Z,6.58
2018-11-14T00:46:36.963Z,6.54
2018-11-14T00:49:05.924Z,6.49
2018-11-14T00:51:34.839Z,6.47
2018-11-14T00:54:03.732Z,6.46
2018-11-14T00:56:32.717Z,6.44
2018-11-14T00:59:01.617Z,6.43
2018-11-14T01:01:30.550Z,6.42
2018-11-14T01:03:59.611Z,6.41
2018-11-14T01:06:28.519Z,6.45
2018-11-14T01:08:57.410Z,6.49
2018-11-14T01:11:26.319Z,6.48
2018-11-14T01:13:55.224Z,6.52
2018-11-14T01:16:24.193Z,6.51
2018-11-14T01:18:53.447Z,6.48
2018-11-14T01:21:22.338Z,6.47
2018-11-14T01:23:51.275Z,6.42
2018-11-14T01:26:20.179Z,6.50
2018-11-14T01:28:49.096Z,6.45
2018-11-14T01:31:17.999Z,6.46
2018-11-14T01:33:46.978Z,6.43
2018-11-14T01:37:45.060Z,6.42
2018-11-14T01:40:18.717Z,6.51
2018-11-14T01:42:48.602Z,6.45
2018-11-14T01:45:17.518Z,6.41
2018-11-14T01:47:46.434Z,6.40
2018-11-14T01:50:15.355Z,6.36
2018-11-14T01:52:44.269Z,6.37
2018-11-14T01:55:18.486Z,6.34
2018-11-14T01:57:47.438Z,6.38
2018-11-14T02:00:20.046Z,6.39
2018-11-14T02:02:49.056Z,6.35
2018-11-14T02:05:18.017Z,6.39
2018-11-14T02:07:46.898Z,6.37
2018-11-14T02:10:18.857Z,6.38
2018-11-14T02:12:47.948Z,6.36
2018-11-14T02:15:18.378Z,6.33
2018-11-14T02:17:47.330Z,6.29
2018-11-14T02:20:17.114Z,6.38
2018-11-14T02:22:46.545Z,6.33
2018-11-14T02:25:16.004Z,6.29
2018-11-14T02:27:44.937Z,6.28
2018-11-14T02:30:18.428Z,6.26
2018-11-14T02:32:47.355Z,6.21
2018-11-14T02:35:16.347Z,6.18
2018-11-14T02:37:45.676Z,6.14
2018-11-14T02:40:15.776Z,6.18
2018-11-14T02:42:44.762Z,6.25
2018-11-14T02:45:14.090Z,6.36
2018-11-14T02:47:43.091Z,6.41
2018-11-14T02:50:13.310Z,6.52
2018-11-14T02:52:42.254Z,6.60
2018-11-14T02:55:12.327Z,6.71
2018-11-14T02:57:41.639Z,6.78
2018-11-14T03:00:13.747Z,6.82
2018-11-14T03:02:43.217Z,6.80
2018-11-14T03:05:12.114Z,6.84
2018-11-14T03:07:42.007Z,6.87
2018-11-14T03:10:17.090Z,6.89
2018-11-14T03:12:45.994Z,6.90
2018-11-14T03:15:16.944Z,6.87
2018-11-14T03:17:45.888Z,6.85
2018-11-14T03:20:17.011Z,6.83
2018-11-14T03:22:45.925Z,6.77
2018-11-14T03:25:15.271Z,6.73
2018-11-14T03:27:44.174Z,6.81
2018-11-14T03:30:14.529Z,6.84
2018-11-14T03:32:44.018Z,6.92
2018-11-14T03:35:13.655Z,6.91
2018-11-14T03:37:42.535Z,6.87
2018-11-14T03:40:13.362Z,6.89
2018-11-14T03:42:42.383Z,6.88
2018-11-14T03:45:12.479Z,6.91
2018-11-14T03:47:42.076Z,6.96
2018-11-14T03:50:11.426Z,7.02
2018-11-14T03:52:40.336Z,7.05
2018-11-14T03:55:09.236Z,7.10
2018-11-14T03:57:38.177Z,7.13
2018-11-14T04:00:10.737Z,7.16
2018-11-14T04:02:39.647Z,7.17
2018-11-14T04:05:08.829Z,7.10
2018-11-14T04:07:38.032Z,7.11
2018-11-14T04:10:08.033Z,7.07
2018-11-14T04:12:37.150Z,7.04
2018-11-14T04:15:07.224Z,7.00
2018-11-14T04:17:36.561Z,6.93
2018-11-14T04:20:07.065Z,6.84
2018-11-14T04:22:35.979Z,6.75
2018-11-14T04:25:05.092Z,6.65
2018-11-14T04:27:34.072Z,6.61
2018-11-14T04:30:03.232Z,6.66
2018-11-14T04:32:32.164Z,6.68
2018-11-14T04:35:01.080Z,6.70
2018-11-14T04:37:30.051Z,6.72
2018-11-14T04:39:58.934Z,6.73
2018-11-14T04:42:27.828Z,6.79
2018-11-14T04:44:56.757Z,6.87
2018-11-14T04:47:25.727Z,6.88
2018-11-14T04:49:54.692Z,6.90
2018-11-14T04:52:23.667Z,6.86
2018-11-14T04:54:52.651Z,6.87
2018-11-14T04:57:21.538Z,6.87
2018-11-14T04:59:50.642Z,6.87
2018-11-14T05:02:19.644Z,6.85
2018-11-14T05:04:48.653Z,6.84
2018-11-14T05:07:17.683Z,6.87
2018-11-14T05:09:46.716Z,6.91
2018-11-14T05:12:15.621Z,6.78
2018-11-14T05:14:44.553Z,6.82
2018-11-14T05:17:14.156Z,6.77
2018-11-14T05:19:43.112Z,6.81
2018-11-14T05:22:12.029Z,6.84
2018-11-14T05:24:41.021Z,6.83
2018-11-14T05:27:11.169Z,6.83
2018-11-14T05:29:40.413Z,6.83
2018-11-14T05:32:09.331Z,6.88
2018-11-14T05:34:38.418Z,6.91
2018-11-14T05:37:07.319Z,6.91
2018-11-14T05:39:36.299Z,6.94
2018-11-14T05:42:05.428Z,6.99
2018-11-14T05:44:34.328Z,6.97
2018-11-14T05:47:03.260Z,6.96
2018-11-14T05:49:32.202Z,6.98
2018-11-14T05:52:01.170Z,7.02
2018-11-14T05:54:30.164Z,7.05
2018-11-14T05:56:59.055Z,7.09
2018-11-14T05:59:27.969Z,7.20
2018-11-14T06:01:56.894Z,7.28
2018-11-14T06:04:26.001Z,7.30
2018-11-14T06:06:54.915Z,7.31
2018-11-14T06:09:23.809Z,7.30
2018-11-14T06:11:52.736Z,7.31
2018-11-14T06:14:21.732Z,7.40
2018-11-14T06:16:50.648Z,7.77
2018-11-14T06:19:19.712Z,7.83
2018-11-14T06:21:48.667Z,8.12
2018-11-14T06:24:17.566Z,8.01
2018-11-14T06:26:46.530Z,7.85
2018-11-14T06:29:15.479Z,7.70
2018-11-14T06:31:45.027Z,7.58
2018-11-14T06:34:13.976Z,7.43
2018-11-14T06:36:42.877Z,7.33
2018-11-14T06:39:12.479Z,7.33
2018-11-14T06:41:41.406Z,7.34
2018-11-14T06:44:10.304Z,7.37
2018-11-14T06:46:39.228Z,7.38
2018-11-14T06:49:08.185Z,7.37
2018-11-14T06:51:38.077Z,7.42
2018-11-14T06:54:06.980Z,7.38
2018-11-14T06:56:35.896Z,7.34
2018-11-14T06:59:05.205Z,7.36
2018-11-14T07:01:34.266Z,7.45
2018-11-14T07:04:03.235Z,7.44
2018-11-14T07:06:32.196Z,7.51
2018-11-14T07:09:01.217Z,7.54
2018-11-14T07:11:30.415Z,7.59
2018-11-14T07:13:59.504Z,7.64
2018-11-14T07:16:28.391Z,7.77
2018-11-14T07:18:57.304Z,7.83
2018-11-14T07:21:26.212Z,7.89
2018-11-14T07:23:55.614Z,7.98
2018-11-14T07:26:24.531Z,7.96
2018-11-14T07:28:53.492Z,8.08
2018-11-14T07:31:22.817Z,8.10
2018-11-14T07:33:51.753Z,8.00
2018-11-14T07:36:20.807Z,8.05
2018-11-14T07:38:51.943Z,8.06
2018-11-14T07:41:25.867Z,8.16
2018-11-14T07:43:57.408Z,8.17
2018-11-14T07:46:27.745Z,8.11
2018-11-14T07:48:56.754Z,8.24
2018-11-14T07:51:25.651Z,8.33
2018-11-14T07:53:54.614Z,8.37
2018-11-14T07:56:23.569Z,8.40
2018-11-14T07:58:52.488Z,8.50
2018-11-14T08:01:21.429Z,8.60
2018-11-14T08:03:50.376Z,8.62
2018-11-14T08:06:19.456Z,8.67
2018-11-14T08:08:48.463Z,8.69
2018-11-14T08:11:17.417Z,8.67
2018-11-14T08:13:47.675Z,8.87
2018-11-14T08:16:16.601Z,8.87
2018-11-14T08:18:45.533Z,8.97
2018-11-14T08:21:14.505Z,9.45
2018-11-14T08:23:43.473Z,9.97
2018-11-14T08:26:12.369Z,10.52
2018-11-14T08:28:41.297Z,11.34
2018-11-14T08:31:13.465Z,11.97
2018-11-14T08:33:42.615Z,12.89
2018-11-14T08:36:11.530Z,13.30
2018-11-14T08:38:40.429Z,13.94
2018-11-14T08:41:09.360Z,14.04
2018-11-14T08:43:38.261Z,14.16
2018-11-14T08:46:07.255Z,13.49
2018-11-14T08:48:36.189Z,13.71
2018-11-14T08:51:05.680Z,14.01
2018-11-14T08:53:34.600Z,12.94
2018-11-14T08:56:03.517Z,12.49
2018-11-14T08:58:32.426Z,12.43
2018-11-14T09:01:01.425Z,12.25
2018-11-14T09:03:37.467Z,12.65
2018-11-14T09:06:06.382Z,12.89
2018-11-14T09:08:35.292Z,13.30
2018-11-14T09:11:04.321Z,13.88
2018-11-14T09:13:33.144Z,14.42
2018-11-14T09:16:02.617Z,15.11
2018-11-14T09:18:31.583Z,15.04
2018-11-14T09:21:00.443Z,15.28
2018-11-14T09:23:29.447Z,15.49
2018-11-14T09:25:58.355Z,16.06
2018-11-14T09:28:27.290Z,16.40
2018-11-14T09:30:56.369Z,16.42
2018-11-14T09:33:25.309Z,16.17
2018-11-14T09:35:54.227Z,15.69
2018-11-14T09:38:23.216Z,16.15
2018-11-14T09:40:52.404Z,16.50
2018-11-14T09:43:21.284Z,17.23
2018-11-14T09:45:50.208Z,16.40
2018-11-14T09:48:19.136Z,16.00
2018-11-14T09:50:48.086Z,15.76
2018-11-14T09:53:17.093Z,16.07
2018-11-14T09:55:45.958Z,16.23
2018-11-14T09:58:14.860Z,16.30
2018-11-14T10:00:43.830Z,17.04
2018-11-14T10:03:14.805Z,17.36
2018-11-14T10:05:43.822Z,17.40
2018-11-14T10:08:12.670Z,17.04
2018-11-14T10:10:41.688Z,17.39
2018-11-14T10:13:10.606Z,18.07
2018-11-14T10:15:39.592Z,17.28
2018-11-14T10:18:08.462Z,16.82
2018-11-14T10:20:37.659Z,16.33
2018-11-14T10:23:06.620Z,16.43
2018-11-14T10:25:35.540Z,16.24
2018-11-14T10:28:04.526Z,16.72
2018-11-14T10:30:33.479Z,16.44
2018-11-14T10:33:02.377Z,16.25
2018-11-14T10:35:31.287Z,16.00
2018-11-14T10:38:01.475Z,15.70
2018-11-14T10:40:32.036Z,15.44
2018-11-14T10:43:01.395Z,15.44
2018-11-14T10:45:30.262Z,15.82
2018-11-14T10:47:59.189Z,15.99
2018-11-14T10:50:28.357Z,16.39
2018-11-14T10:52:57.252Z,17.09
2018-11-14T10:55:26.184Z,17.23
2018-11-14T10:57:55.100Z,17.00
2018-11-14T11:01:34.836Z,16.46
2018-11-14T11:04:09.319Z,16.48
2018-11-14T11:06:43.725Z,16.00
2018-11-14T11:09:18.145Z,15.41
2018-11-14T11:11:52.563Z,15.84
2018-11-14T11:14:26.831Z,15.90
2018-11-14T11:17:01.182Z,15.63
2018-11-14T11:19:31.260Z,15.66
2018-11-14T11:22:00.399Z,15.47
2018-11-14T11:24:29.330Z,15.37
2018-11-14T11:26:58.253Z,15.82
2018-11-14T11:29:27.158Z,15.90
2018-11-14T11:31:56.223Z,16.76
2018-11-14T11:34:25.084Z,16.79
2018-11-14T11:36:54.015Z,17.21
2018-11-14T11:39:22.935Z,16.98
2018-11-14T11:41:51.865Z,17.21
2018-11-14T11:44:20.848Z,17.16
2018-11-14T11:46:49.735Z,17.09
2018-11-14T11:49:18.639Z,17.08
2018-11-14T11:51:47.555Z,16.19
2018-11-14T11:54:16.515Z,16.51
2018-11-14T11:56:45.440Z,16.29
2018-11-14T11:59:14.366Z,16.87
2018-11-14T12:01:43.291Z,17.24
2018-11-14T12:04:12.188Z,16.41
2018-11-14T12:06:41.129Z,16.79
2018-11-14T12:09:11.280Z,17.44
2018-11-14T12:11:40.291Z,16.88
2018-11-14T12:14:09.488Z,16.93
2018-11-14T12:16:38.406Z,17.03
2018-11-14T12:19:07.354Z,17.35
2018-11-14T12:21:36.252Z,17.38
2018-11-14T12:24:05.361Z,17.87
2018-11-14T12:26:34.268Z,17.57
2018-11-14T12:29:03.190Z,18.26
2018-11-14T12:31:32.271Z,18.19
2018-11-14T12:34:01.163Z,17.19
2018-11-14T12:36:30.053Z,17.01
2018-11-14T12:38:58.970Z,16.79
2018-11-14T12:41:27.895Z,17.29
2018-11-14T12:43:56.828Z,17.71
2018-11-14T12:46:25.748Z,17.47
2018-11-14T12:48:54.900Z,17.22
2018-11-14T12:51:24.017Z,16.82
2018-11-14T12:53:53.010Z,17.22
2018-11-14T12:56:21.952Z,17.13
2018-11-14T12:58:51.215Z,17.38
2018-11-14T13:01:20.299Z,17.39
2018-11-14T13:03:49.225Z,16.89
2018-11-14T13:06:18.161Z,16.40
2018-11-14T13:08:47.260Z,16.57
2018-11-14T13:11:16.168Z,16.65
2018-11-14T13:13:48.206Z,16.62
2018-11-14T13:16:18.017Z,16.39
2018-11-14T13:18:46.920Z,17.12
2018-11-14T13:21:18.900Z,17.04
2018-11-14T13:23:47.835Z,17.20
2018-11-14T13:26:19.131Z,17.16
2018-11-14T13:28:48.095Z,16.98
2018-11-14T13:31:17.069Z,17.03
2018-11-14T13:33:46.002Z,17.26
2018-11-14T13:36:18.904Z,16.66
2018-11-14T13:38:49.100Z,16.79
2018-11-14T13:41:19.939Z,16.40
2018-11-14T13:43:48.842Z,16.35
2018-11-14T13:46:17.837Z,15.87
2018-11-14T13:48:46.983Z,16.11
2018-11-14T13:51:16.025Z,16.45
2018-11-14T13:53:44.756Z,17.21
2018-11-14T13:56:13.674Z,16.78
2018-11-14T13:58:46.150Z,15.93
2018-11-14T14:01:15.511Z,15.82
2018-11-14T14:03:44.424Z,16.20
2018-11-14T14:06:13.336Z,16.31
2018-11-14T14:08:42.458Z,15.77
2018-11-14T14:11:11.823Z,15.08
2018-11-14T14:13:46.199Z,15.04
2018-11-14T14:16:16.016Z,14.78
2018-11-14T14:18:45.798Z,14.73
2018-11-14T14:21:14.756Z,14.58
2018-11-14T14:23:43.699Z,14.61
2018-11-14T14:26:12.656Z,14.43
2018-11-14T14:28:41.555Z,14.68
2018-11-14T14:31:10.590Z,14.56
2018-11-14T14:33:39.663Z,14.32
2018-11-14T14:36:08.577Z,13.85
2018-11-14T14:38:37.588Z,13.64
2018-11-14T14:41:06.467Z,13.34
2018-11-14T14:43:35.401Z,13.12
2018-11-14T14:46:04.369Z,13.05
2018-11-14T14:48:33.289Z,12.79
2018-11-14T14:51:02.491Z,12.52
2018-11-14T14:53:31.650Z,12.29
2018-11-14T14:56:00.632Z,12.10
2018-11-14T14:58:29.537Z,11.96
2018-11-14T15:00:58.517Z,11.65
2018-11-14T15:03:27.527Z,11.32
2018-11-14T15:05:56.375Z,11.15
2018-11-14T15:08:25.308Z,10.90
2018-11-14T15:10:54.216Z,10.74
2018-11-14T15:13:23.133Z,10.57
2018-11-14T15:15:52.167Z,10.31
2018-11-14T15:18:21.155Z,10.26
2018-11-14T15:20:50.130Z,10.06
2018-11-14T15:23:19.061Z,9.90
2018-11-14T15:25:48.219Z,9.72
2018-11-14T15:28:17.263Z,9.57
2018-11-14T15:30:46.247Z,9.47
2018-11-14T15:33:15.419Z,9.39
2018-11-14T15:35:44.408Z,9.31
2018-11-14T15:38:13.253Z,9.29
2018-11-14T15:40:42.200Z,9.13
2018-11-14T15:43:11.107Z,9.03
2018-11-14T15:45:40.100Z,8.98
2018-11-14T15:48:09.015Z,8.89
2018-11-14T15:50:39.052Z,8.81
2018-11-14T15:53:07.983Z,8.71
2018-11-14T15:55:37.050Z,8.64
2018-11-14T15:58:06.279Z,8.58
2018-11-14T16:00:35.173Z,8.57
2018-11-14T16:03:04.100Z,8.46
2018-11-14T16:05:33.619Z,8.35
2018-11-14T16:08:03.380Z,8.29
2018-11-14T16:10:33.103Z,8.30
2018-11-14T16:13:02.018Z,8.29
2018-11-14T16:15:32.538Z,8.28
2018-11-14T16:18:01.521Z,8.20
2018-11-14T16:20:30.507Z,8.12
2018-11-14T16:22:59.416Z,8.05
2018-11-14T16:25:28.734Z,8.04
2018-11-14T16:27:58.932Z,8.01
2018-11-14T16:30:29.043Z,7.95
2018-11-14T16:32:59.264Z,7.98
2018-11-14T16:35:28.309Z,7.93
2018-11-14T16:37:57.248Z,7.79
2018-11-14T16:40:27.466Z,7.73
2018-11-14T16:42:57.193Z,7.53
2018-11-14T16:45:26.089Z,7.45
2018-11-14T16:47:55.026Z,7.35
2018-11-14T16:50:24.769Z,7.29
2018-11-14T16:52:53.704Z,7.28
2018-11-14T16:55:23.288Z,7.20
2018-11-14T16:57:53.207Z,7.17
2018-11-14T17:00:31.344Z,7.20
2018-11-14T17:03:02.788Z,7.21
2018-11-14T17:05:32.972Z,7.20
2018-11-14T17:08:05.005Z,7.10
2018-11-14T17:10:33.967Z,7.08
2018-11-14T17:13:03.252Z,7.15
2018-11-14T17:15:32.238Z,7.06
2018-11-14T17:18:01.272Z,6.96
2018-11-14T17:20:30.213Z,6.85
2018-11-14T17:22:59.114Z,6.71
2018-11-14T17:25:28.057Z,6.68
2018-11-14T17:27:56.989Z,6.68
2018-11-14T17:30:27.176Z,6.64
2018-11-14T17:32:56.227Z,6.62
2018-11-14T17:35:25.131Z,6.44
2018-11-14T17:37:54.122Z,6.34
2018-11-14T17:40:25.762Z,6.34
2018-11-14T17:42:55.034Z,6.32
2018-11-14T17:45:25.492Z,6.25
2018-11-14T17:47:54.785Z,6.17
2018-11-14T17:50:26.127Z,6.23
2018-11-14T17:52:55.845Z,6.19
2018-11-14T17:55:25.455Z,6.04
2018-11-14T17:57:54.295Z,6.02
2018-11-14T18:00:33.655Z,5.98
2018-11-14T18:03:04.887Z,6.02
2018-11-14T18:05:33.699Z,5.91
2018-11-14T18:08:02.595Z,5.91
2018-11-14T18:10:32.120Z,5.97
2018-11-14T18:13:02.003Z,6.05
2018-11-14T18:15:30.918Z,6.01
2018-11-14T18:17:59.918Z,5.94
2018-11-14T18:20:30.228Z,5.91
2018-11-14T18:22:59.450Z,5.92
2018-11-14T18:25:29.576Z,5.91
2018-11-14T18:27:58.487Z,5.86
2018-11-14T18:30:28.684Z,5.86
2018-11-14T18:32:58.650Z,5.84
2018-11-14T18:35:28.021Z,5.84
2018-11-14T18:37:57.913Z,5.87
2018-11-14T18:40:34.005Z,5.86
2018-11-14T18:43:02.907Z,5.93
2018-11-14T18:45:33.272Z,5.96
2018-11-14T18:48:02.687Z,5.96
2018-11-14T18:50:31.609Z,5.99
2018-11-14T18:53:00.535Z,5.94
2018-11-14T18:55:30.819Z,5.97
2018-11-14T18:58:00.416Z,6.45
2018-11-14T19:00:31.204Z,6.69
2018-11-14T19:03:03.727Z,6.77
2018-11-14T19:05:32.687Z,6.87
2018-11-14T19:08:01.948Z,6.53
2018-11-14T19:10:32.276Z,6.24
2018-11-14T19:13:01.208Z,6.07
2018-11-14T19:15:31.467Z,5.91
2018-11-14T19:18:00.520Z,5.85
2018-11-14T19:20:30.749Z,5.74
2018-11-14T19:23:00.270Z,5.69
2018-11-14T19:25:32.352Z,5.69
2018-11-14T19:28:01.276Z,5.63
2018-11-14T19:30:31.382Z,5.60
2018-11-14T19:33:00.916Z,5.56
2018-11-14T19:35:30.077Z,5.53
2018-11-14T19:37:59.286Z,5.45
2018-11-14T19:40:30.034Z,5.29
2018-11-14T19:43:00.145Z,5.33
2018-11-14T19:45:31.755Z,5.29
2018-11-14T19:48:00.940Z,5.27
2018-11-14T19:50:29.976Z,5.22
2018-11-14T19:52:59.034Z,5.18
2018-11-14T19:55:28.503Z,5.14
2018-11-14T19:57:58.720Z,5.14
2018-11-14T20:00:30.073Z,5.14
2018-11-14T20:02:59.408Z,5.09
2018-11-14T20:05:28.406Z,5.12
2018-11-14T20:07:57.315Z,5.09
2018-11-14T20:10:27.636Z,5.06
2018-11-14T20:12:56.608Z,5.13
2018-11-14T20:15:29.142Z,5.02
2018-11-14T20:17:58.652Z,5.03
2018-11-14T20:20:29.028Z,5.00
2018-11-14T20:22:57.964Z,5.02
2018-11-14T20:25:26.939Z,4.95
2018-11-14T20:27:55.935Z,5.02
2018-11-14T20:30:27.256Z,4.92
2018-11-14T20:32:57.783Z,4.89
2018-11-14T20:35:27.223Z,4.80
2018-11-14T20:37:56.168Z,4.80
2018-11-14T20:40:25.555Z,4.73
2018-11-14T20:42:56.945Z,4.69
2018-11-14T20:45:28.940Z,4.68
2018-11-14T20:47:58.005Z,4.64
2018-11-14T20:50:27.671Z,4.60
2018-11-14T20:52:58.207Z,4.50
2018-11-14T20:55:27.492Z,4.43
2018-11-14T20:57:57.090Z,4.52
2018-11-14T21:00:30.479Z,4.56
2018-11-14T21:03:00.203Z,4.47
2018-11-14T21:05:30.138Z,4.48
2018-11-14T21:07:59.295Z,4.41
2018-11-14T21:10:30.386Z,4.39
2018-11-14T21:12:59.991Z,4.43
2018-11-14T21:15:33.464Z,4.47
2018-11-14T21:18:02.880Z,4.42
2018-11-14T21:20:32.930Z,4.47
2018-11-14T21:23:01.911Z,4.48
2018-11-14T21:25:33.597Z,4.50
2018-11-14T21:28:02.527Z,4.47
2018-11-14T21:30:31.737Z,4.52
2018-11-14T21:33:01.145Z,4.51
2018-11-14T21:35:31.779Z,4.43
2018-11-14T21:38:02.086Z,4.40
2018-11-14T21:40:31.479Z,4.42
2018-11-14T21:43:00.469Z,4.47
2018-11-14T21:45:30.005Z,4.44
2018-11-14T21:48:04.480Z,4.52
2018-11-14T21:50:33.717Z,4.39
2018-11-14T21:53:02.753Z,4.36
2018-11-14T21:55:31.656Z,4.39
2018-11-14T21:58:05.196Z,4.39
2018-11-14T22:00:35.566Z,4.31
2018-11-14T22:03:05.030Z,4.31
2018-11-14T22:05:34.440Z,4.23
2018-11-14T22:08:03.715Z,4.17
2018-11-14T22:10:32.665Z,4.21
2018-11-14T22:13:01.608Z,4.17
2018-11-14T22:15:31.049Z,4.16
2018-11-14T22:18:00.017Z,4.17
2018-11-14T22:20:29.643Z,4.12
2018-11-14T22:22:59.838Z,4.03
2018-11-14T22:25:29.685Z,4.00
2018-11-14T22:27:58.786Z,3.96
2018-11-14T22:30:35.884Z,3.90
2018-11-14T22:33:04.835Z,3.97
2018-11-14T22:35:33.876Z,3.91
2018-11-14T22:38:02.764Z,3.86
2018-11-14T22:40:32.623Z,3.94
2018-11-14T22:43:01.837Z,3.95
2018-11-14T22:45:32.267Z,3.90
2018-11-14T22:48:01.316Z,3.84
2018-11-14T22:50:30.276Z,3.76
2018-11-14T22:52:59.442Z,3.76
2018-11-14T22:55:28.534Z,3.83
2018-11-14T22:57:57.424Z,3.81
2018-11-14T23:00:29.355Z,3.85
2018-11-14T23:02:59.451Z,3.86
2018-11-14T23:05:28.443Z,3.94
2018-11-14T23:07:58.332Z,3.95
2018-11-14T23:10:27.629Z,3.96
2018-11-14T23:12:56.550Z,3.97
2018-11-14T23:15:25.677Z,3.91
2018-11-14T23:17:54.658Z,3.89
2018-11-14T23:20:23.696Z,3.93
2018-11-14T23:22:53.180Z,3.88
2018-11-14T23:25:22.711Z,3.86
2018-11-14T23:27:53.148Z,3.84
2018-11-14T23:30:23.596Z,3.86
2018-11-14T23:32:53.618Z,3.79
2018-11-14T23:35:25.768Z,3.75
2018-11-14T23:37:56.020Z,3.73
2018-11-14T23:40:25.188Z,3.68
2018-11-14T23:42:54.107Z,3.71
2018-11-14T23:45:23.818Z,3.70
2018-11-14T23:47:52.918Z,3.66
2018-11-14T23:50:23.002Z,3.67
2018-11-14T23:52:52.940Z,3.61
2018-11-14T23:55:22.595Z,3.64
2018-11-14T23:57:51.531Z,3.60
